Time;durP1;ratioP1;P1;durP2;ratioP2;P2;SDS_P1;SDS_P2;PMS_P1;PMS_P2;Temp;Humidity;BMP_temperature;BMP_pressure;BME280_temperature;BME280_humidity;BME280_pressure;Samples;Min_cycle;Max_cycle;Signal;HPM_P1;HPM_P2
2022/10/06 00:00:00;;;;;;;5.60;4.90;;;15.30;99.90;;;;;;10420077;22;20228;-79
2022/10/06 00:05:04;;;;;;;9.30;5.90;;;15.30;99.90;;;;;;10419139;28;20253;-80
2022/10/06 00:10:08;;;;;;;6.60;4.83;;;15.20;99.90;;;;;;10416646;28;20226;-78
2022/10/06 00:15:12;;;;;;;7.57;4.80;;;15.20;99.90;;;;;;10415790;28;20186;-78
2022/10/06 00:20:19;;;;;;;5.77;5.00;;;15.20;99.90;;;;;;10419919;28;20224;-80
2022/10/06 00:25:24;;;;;;;5.97;5.47;;;15.20;99.90;;;;;;10425013;28;20218;-80
2022/10/06 00:30:28;;;;;;;5.50;4.93;;;15.10;99.90;;;;;;10424038;28;20225;-78
2022/10/06 00:35:33;;;;;;;5.50;5.00;;;15.10;99.90;;;;;;10425285;28;20285;-79
2022/10/06 00:40:42;;;;;;;5.30;4.90;;;15.10;99.90;;;;;;10419762;28;20588;-76
2022/10/06 00:45:48;;;;;;;5.00;4.60;;;15.10;99.90;;;;;;10398989;28;20217;-77
2022/10/06 00:50:53;;;;;;;4.77;4.47;;;15.10;99.90;;;;;;10415950;28;20772;-76
2022/10/06 00:55:56;;;;;;;4.80;4.40;;;15.10;99.90;;;;;;10415500;28;20198;-77
2022/10/06 01:00:59;;;;;;;4.87;4.47;;;15.10;99.90;;;;;;10416710;28;20245;-77
2022/10/06 01:06:04;;;;;;;5.57;5.07;;;15.00;99.90;;;;;;10416446;28;20243;-77
2022/10/06 01:11:11;;;;;;;4.93;4.37;;;15.10;99.90;;;;;;10418232;28;20304;-78
2022/10/06 01:16:19;;;;;;;5.97;4.43;;;15.00;99.90;;;;;;10419341;28;20190;-78
2022/10/06 01:21:35;;;;;;;4.77;4.47;;;15.00;99.90;;;;;;10418798;28;20280;-78
2022/10/06 01:26:44;;;;;;;5.53;5.10;;;15.00;99.90;;;;;;10418698;28;20496;-77
2022/10/06 01:31:46;;;;;;;5.00;4.67;;;14.90;99.90;;;;;;10418110;28;20217;-77
2022/10/06 01:36:49;;;;;;;8.77;6.53;;;14.90;99.90;;;;;;10417701;28;20262;-77
2022/10/06 01:41:54;;;;;;;5.57;5.07;;;14.90;99.90;;;;;;10419374;28;20292;-77
2022/10/06 01:46:56;;;;;;;5.23;4.70;;;14.80;99.90;;;;;;10419012;28;20325;-78
2022/10/06 01:51:58;;;;;;;6.50;5.90;;;14.80;99.90;;;;;;10417088;28;20568;-77
2022/10/06 01:57:02;;;;;;;6.50;6.00;;;14.80;99.90;;;;;;10396624;28;20603;-77
2022/10/06 02:02:04;;;;;;;7.07;6.10;;;14.80;99.90;;;;;;10413664;28;20312;-76
2022/10/06 02:07:07;;;;;;;7.20;6.60;;;14.70;99.90;;;;;;10415417;28;20272;-76
2022/10/06 02:12:18;;;;;;;6.70;6.20;;;14.70;99.90;;;;;;10427773;28;20194;-77
2022/10/06 02:17:21;;;;;;;5.97;5.67;;;14.70;99.90;;;;;;10428229;28;20646;-79
2022/10/06 02:22:24;;;;;;;6.20;5.80;;;14.70;99.90;;;;;;10424419;28;20284;-78
2022/10/06 02:27:28;;;;;;;6.80;6.20;;;14.60;99.90;;;;;;10412880;28;20283;-79
2022/10/06 02:32:34;;;;;;;6.73;6.23;;;14.60;99.90;;;;;;10413297;28;20281;-77
2022/10/06 02:37:36;;;;;;;6.80;6.20;;;14.60;99.90;;;;;;10416281;28;20293;-77
2022/10/06 02:42:40;;;;;;;8.50;7.00;;;14.50;99.90;;;;;;10414774;28;20235;-77
2022/10/06 02:47:42;;;;;;;7.60;7.00;;;14.50;99.90;;;;;;10414394;28;20225;-77
2022/10/06 02:52:45;;;;;;;7.17;6.50;;;14.50;99.90;;;;;;10415379;28;20230;-77
2022/10/06 02:57:48;;;;;;;7.03;6.53;;;14.50;99.90;;;;;;10416400;28;20218;-78
2022/10/06 03:02:50;;;;;;;6.67;6.17;;;14.50;99.90;;;;;;10415564;28;20213;-77
2022/10/06 03:07:52;;;;;;;7.60;7.00;;;14.50;99.90;;;;;;10414404;28;20518;-78
2022/10/06 03:12:56;;;;;;;6.67;6.17;;;14.50;99.90;;;;;;10413632;28;20227;-77
2022/10/06 03:17:58;;;;;;;9.10;7.80;;;14.50;99.90;;;;;;10413621;28;20634;-77
2022/10/06 03:23:00;;;;;;;8.03;7.27;;;14.50;99.90;;;;;;10412971;28;20209;-77
2022/10/06 03:28:04;;;;;;;7.50;6.80;;;14.50;99.90;;;;;;10411748;28;20241;-77
2022/10/06 03:33:06;;;;;;;9.10;8.27;;;14.50;99.90;;;;;;10396569;28;20202;-77
2022/10/06 03:38:08;;;;;;;8.80;7.50;;;14.50;99.90;;;;;;10411898;28;20225;-77
2022/10/06 03:43:12;;;;;;;8.63;7.87;;;14.50;99.90;;;;;;10411874;28;20255;-77
2022/10/06 03:48:15;;;;;;;7.73;7.03;;;14.50;99.90;;;;;;10411110;28;20229;-78
2022/10/06 03:53:17;;;;;;;7.60;7.00;;;14.50;99.90;;;;;;10412976;28;20194;-78
2022/10/06 03:58:20;;;;;;;8.53;7.60;;;14.60;99.90;;;;;;10413181;28;20218;-77
2022/10/06 04:03:23;;;;;;;8.00;7.40;;;14.60;99.90;;;;;;10420601;28;20193;-80
2022/10/06 04:08:25;;;;;;;8.20;7.73;;;14.60;99.90;;;;;;10428394;28;20218;-79
2022/10/06 04:13:29;;;;;;;10.13;8.80;;;14.60;99.90;;;;;;10426101;28;20280;-78
2022/10/06 04:18:31;;;;;;;7.93;7.23;;;14.70;99.90;;;;;;10431810;28;20263;-79
2022/10/06 04:23:35;;;;;;;8.40;7.90;;;14.80;99.90;;;;;;10407407;28;20209;-77
2022/10/06 04:28:40;;;;;;;6.20;5.90;;;14.80;99.90;;;;;;10418985;28;20243;-78
2022/10/06 04:33:44;;;;;;;8.10;7.60;;;14.80;99.90;;;;;;10420104;28;20202;-77
2022/10/06 04:38:47;;;;;;;9.20;8.50;;;14.80;99.90;;;;;;10418447;28;20650;-78
2022/10/06 04:43:51;;;;;;;10.27;9.40;;;14.90;99.90;;;;;;10418771;28;20240;-77
2022/10/06 04:48:54;;;;;;;8.10;7.50;;;14.90;99.90;;;;;;10418608;28;20308;-77
2022/10/06 04:53:59;;;;;;;10.10;8.63;;;14.80;99.90;;;;;;10417453;28;20668;-77
2022/10/06 04:59:04;;;;;;;9.77;8.97;;;14.80;99.90;;;;;;10398720;28;20222;-76
2022/10/06 05:04:10;;;;;;;9.40;8.80;;;14.90;99.90;;;;;;10415412;28;20209;-76
2022/10/06 05:09:14;;;;;;;8.03;7.53;;;15.00;99.90;;;;;;10398436;28;20225;-76
2022/10/06 05:14:26;;;;;;;9.03;8.43;;;15.00;99.90;;;;;;10419506;28;20213;-78
2022/10/06 05:19:28;;;;;;;8.70;8.00;;;15.10;99.90;;;;;;10419777;28;20218;-78
2022/10/06 05:24:31;;;;;;;7.73;7.13;;;15.20;99.90;;;;;;10403350;28;20224;-77
2022/10/06 05:29:35;;;;;;;8.67;7.83;;;15.20;99.90;;;;;;10423141;28;20316;-77
2022/10/06 05:34:39;;;;;;;8.60;8.00;;;15.30;99.90;;;;;;10421446;28;20216;-78
2022/10/06 05:39:42;;;;;;;8.23;7.40;;;15.30;99.90;;;;;;10422853;28;20225;-77
2022/10/06 05:44:45;;;;;;;8.40;7.60;;;15.40;99.90;;;;;;10418472;28;20753;-77
2022/10/06 05:49:50;;;;;;;8.37;7.70;;;15.40;99.90;;;;;;10399631;28;20329;-78
2022/10/06 05:54:53;;;;;;;8.67;8.07;;;15.40;99.90;;;;;;10417714;28;20257;-78
2022/10/06 05:59:56;;;;;;;9.80;9.07;;;15.50;99.90;;;;;;10418256;28;20218;-78
2022/10/06 06:04:58;;;;;;;9.03;8.13;;;15.50;99.90;;;;;;10423910;28;20670;-78
2022/10/06 06:10:01;;;;;;;12.10;11.10;;;15.50;99.90;;;;;;10417151;28;20237;-78
2022/10/06 06:20:31;;;;;;;10.80;10.10;;;15.60;99.90;;;;;;10397745;28;20218;-77
2022/10/06 06:25:34;;;;;;;11.83;10.83;;;15.70;99.90;;;;;;10415048;28;20713;-78
2022/10/06 06:30:37;;;;;;;16.37;14.63;;;15.70;99.90;;;;;;10416230;28;20221;-78
2022/10/06 06:35:39;;;;;;;13.03;11.83;;;15.80;99.90;;;;;;10413284;28;20267;-76
2022/10/06 06:40:42;;;;;;;14.00;12.80;;;15.80;99.90;;;;;;10394375;28;20224;-76
2022/10/06 06:45:48;;;;;;;10.23;9.50;;;15.90;99.90;;;;;;10410031;28;20272;-75
2022/10/06 06:51:10;;;;;;;8.90;8.20;;;16.00;99.90;;;;;;10410539;28;20225;-76
2022/10/06 06:56:13;;;;;;;8.13;7.53;;;16.00;99.90;;;;;;10410057;28;20209;-75
2022/10/06 07:01:19;;;;;;;8.80;8.10;;;16.10;99.90;;;;;;10410024;28;20221;-76
2022/10/06 07:06:25;;;;;;;8.37;7.67;;;16.20;99.90;;;;;;10409227;28;20210;-76
2022/10/06 07:11:29;;;;;;;8.43;7.90;;;16.40;99.90;;;;;;10409021;28;20220;-76
2022/10/06 07:27:16;;;;;;;8.60;8.10;;;16.70;99.90;;;;;;10428310;28;20236;-76
2022/10/06 07:32:21;;;;;;;9.60;8.80;;;16.70;99.90;;;;;;10429202;28;20277;-77
2022/10/06 07:37:24;;;;;;;10.07;9.17;;;16.80;99.90;;;;;;10427862;28;20198;-76
2022/10/06 07:42:27;;;;;;;9.50;8.50;;;16.90;99.90;;;;;;10431812;28;20189;-77
2022/10/06 07:47:30;;;;;;;13.90;11.57;;;17.00;99.90;;;;;;10424724;28;20244;-76
2022/10/06 07:52:35;;;;;;;10.77;9.80;;;17.00;99.90;;;;;;10433016;28;20259;-76
2022/10/06 07:57:37;;;;;;;7.07;6.57;;;17.10;99.90;;;;;;10450573;28;20292;-77
2022/10/06 08:02:40;;;;;;;6.47;5.90;;;17.20;99.90;;;;;;10437390;28;20634;-76
2022/10/06 08:07:42;;;;;;;5.40;4.90;;;17.40;99.90;;;;;;10407904;28;20309;-76
2022/10/06 08:12:45;;;;;;;5.80;5.40;;;17.50;99.90;;;;;;10409761;28;20206;-76
2022/10/06 08:17:48;;;;;;;4.90;4.60;;;17.60;99.90;;;;;;10408813;28;20217;-75
2022/10/06 08:22:50;;;;;;;9.17;8.40;;;17.60;99.90;;;;;;10410317;28;20206;-77
2022/10/06 08:27:52;;;;;;;4.50;4.10;;;17.60;99.90;;;;;;10412923;28;20689;-78
2022/10/06 08:32:57;;;;;;;5.20;4.80;;;17.60;99.90;;;;;;10411748;28;20245;-76
2022/10/06 08:37:59;;;;;;;8.90;8.20;;;17.60;99.90;;;;;;10412633;28;20240;-78
2022/10/06 08:43:02;;;;;;;5.67;5.10;;;17.70;99.90;;;;;;10414147;28;20277;-78
2022/10/06 08:48:12;;;;;;;4.23;3.83;;;17.70;99.90;;;;;;10414604;28;20305;-77
2022/10/06 08:53:22;;;;;;;6.87;6.10;;;17.80;99.90;;;;;;10420108;28;20209;-78
2022/10/06 08:58:39;;;;;;;7.00;4.90;;;17.90;99.90;;;;;;10413378;28;20221;-76
2022/10/06 09:03:46;;;;;;;4.73;4.43;;;18.00;99.90;;;;;;10412790;28;20285;-76
2022/10/06 09:08:52;;;;;;;4.93;4.53;;;18.10;99.90;;;;;;10410371;28;20301;-76
2022/10/06 09:13:58;;;;;;;6.43;4.30;;;18.10;99.90;;;;;;10413695;28;20209;-76
2022/10/06 09:19:11;;;;;;;7.63;4.73;;;18.10;99.90;;;;;;10415313;28;20214;-76
2022/10/06 09:24:16;;;;;;;3.50;3.30;;;18.20;99.90;;;;;;10415181;28;20204;-76
2022/10/06 09:29:18;;;;;;;7.50;4.00;;;18.30;99.90;;;;;;10415356;28;20297;-76
2022/10/06 09:34:28;;;;;;;4.93;4.53;;;18.30;99.90;;;;;;10414633;28;20205;-76
2022/10/06 09:39:35;;;;;;;4.40;3.80;;;18.40;99.90;;;;;;10414426;28;20218;-76
2022/10/06 09:44:46;;;;;;;4.40;3.90;;;18.50;99.90;;;;;;10413948;28;20285;-76
2022/10/06 09:50:03;;;;;;;3.93;3.63;;;18.60;99.90;;;;;;10414015;28;20297;-77
2022/10/06 09:55:11;;;;;;;3.70;3.50;;;18.70;99.90;;;;;;10413551;28;20244;-77
2022/10/06 10:00:26;;;;;;;4.07;3.80;;;18.80;99.90;;;;;;10412460;28;20225;-77
2022/10/06 10:05:32;;;;;;;4.70;4.40;;;18.80;99.90;;;;;;10413500;28;20668;-77
2022/10/06 10:10:35;;;;;;;5.07;3.90;;;18.80;99.90;;;;;;10412455;28;20220;-77
2022/10/06 10:15:51;;;;;;;5.03;3.90;;;18.90;99.90;;;;;;10413432;28;20662;-77
2022/10/06 10:20:57;;;;;;;4.10;3.80;;;18.90;99.90;;;;;;10413301;28;20305;-77
2022/10/06 10:26:13;;;;;;;5.33;3.70;;;19.00;99.90;;;;;;10412215;28;20229;-77
2022/10/06 10:31:21;;;;;;;4.57;4.10;;;19.00;99.90;;;;;;10412949;28;20320;-77
2022/10/06 10:36:33;;;;;;;5.97;3.70;;;18.90;99.90;;;;;;10413390;28;20221;-77
2022/10/06 10:41:42;;;;;;;4.20;3.93;;;18.80;99.90;;;;;;10413020;28;20222;-77
2022/10/06 10:46:49;;;;;;;5.27;3.20;;;18.60;99.90;;;;;;10412731;28;20315;-77
2022/10/06 10:51:56;;;;;;;4.87;4.43;;;18.40;99.90;;;;;;10411639;28;20643;-76
2022/10/06 10:56:58;;;;;;;6.77;4.00;;;18.40;99.90;;;;;;10412184;28;20206;-77
2022/10/06 11:02:05;;;;;;;3.47;3.17;;;18.40;99.90;;;;;;10411455;28;20761;-76
2022/10/06 11:07:22;;;;;;;4.20;3.10;;;18.50;99.90;;;;;;10411277;28;20220;-75
2022/10/06 11:12:38;;;;;;;4.23;3.93;;;18.60;99.90;;;;;;10410541;28;20229;-77
2022/10/06 11:17:48;;;;;;;3.40;3.20;;;18.60;99.90;;;;;;10410957;28;20201;-76
2022/10/06 11:22:58;;;;;;;6.20;3.73;;;18.60;99.90;;;;;;10411177;28;20202;-77
2022/10/06 11:28:07;;;;;;;4.17;3.87;;;18.70;99.90;;;;;;10411474;28;20249;-78
2022/10/06 11:33:15;;;;;;;4.60;4.13;;;18.80;99.90;;;;;;10413915;28;20193;-79
2022/10/06 11:38:24;;;;;;;4.60;3.53;;;18.90;99.90;;;;;;10413525;28;20220;-78
2022/10/06 11:43:33;;;;;;;5.27;4.77;;;19.00;99.90;;;;;;10414130;28;20252;-78
2022/10/06 11:48:35;;;;;;;2.60;2.40;;;18.90;99.90;;;;;;10414219;28;20218;-79
2022/10/06 11:53:40;;;;;;;5.77;3.90;;;18.90;99.90;;;;;;10415566;28;20285;-80
2022/10/06 11:59:08;;;;;;;5.10;3.90;;;18.90;99.90;;;;;;10442501;22;20230;-77
2022/10/06 12:04:15;;;;;;;4.50;3.33;;;18.80;99.90;;;;;;10479702;28;20201;-78
2022/10/06 12:09:52;;;;;;;3.33;3.00;;;18.80;99.90;;;;;;10480463;28;20217;-77
2022/10/06 12:15:02;;;;;;;3.80;3.23;;;18.70;99.90;;;;;;10463382;28;20223;-78
2022/10/06 12:20:16;;;;;;;3.17;2.97;;;18.70;99.90;;;;;;10467463;28;20630;-78
2022/10/06 12:25:25;;;;;;;4.90;4.40;;;18.60;99.90;;;;;;10450600;28;20198;-79
2022/10/06 12:30:32;;;;;;;5.90;3.73;;;18.60;99.90;;;;;;10436615;28;20234;-77
2022/10/06 12:35:35;;;;;;;5.30;3.50;;;18.70;99.90;;;;;;10475625;28;20606;-80
2022/10/06 12:40:51;;;;;;;7.07;3.33;;;18.80;99.90;;;;;;10436887;28;20690;-81
2022/10/06 12:45:57;;;;;;;3.80;3.47;;;18.80;99.90;;;;;;10468126;28;20204;-78
2022/10/06 12:51:06;;;;;;;3.90;3.50;;;18.80;99.90;;;;;;10465269;28;20213;-80
2022/10/06 12:56:27;;;;;;;4.53;4.10;;;18.80;99.90;;;;;;10500223;28;20205;-81
2022/10/06 13:01:29;;;;;;;4.50;4.10;;;18.90;99.90;;;;;;10475127;28;20699;-78
2022/10/06 13:06:32;;;;;;;5.33;3.90;;;18.90;99.90;;;;;;10458553;28;20260;-79
2022/10/06 13:11:35;;;;;;;3.97;3.60;;;18.90;99.90;;;;;;10453376;28;20212;-77
2022/10/06 13:16:40;;;;;;;3.93;3.63;;;18.90;99.90;;;;;;10471901;28;20190;-79
2022/10/06 13:21:42;;;;;;;4.00;3.60;;;19.00;99.90;;;;;;10453724;28;20680;-80
2022/10/06 13:26:47;;;;;;;4.23;3.83;;;19.00;99.90;;;;;;10492022;28;20201;-78
2022/10/06 13:31:51;;;;;;;6.00;3.80;;;19.00;99.90;;;;;;10471793;28;20228;-77
2022/10/06 13:36:53;;;;;;;8.43;3.80;;;19.10;99.90;;;;;;10488454;28;20205;-80
2022/10/06 13:41:59;;;;;;;4.03;3.70;;;19.10;99.90;;;;;;10477649;28;20532;-79
2022/10/06 13:47:03;;;;;;;4.80;4.17;;;19.10;99.90;;;;;;10445872;28;20221;-79
2022/10/06 13:52:15;;;;;;;5.03;4.63;;;19.00;99.90;;;;;;10446723;28;20217;-80
2022/10/06 13:57:40;;;;;;;5.00;3.97;;;19.00;99.90;;;;;;10463309;28;20185;-79
2022/10/06 14:02:43;;;;;;;4.73;4.23;;;18.90;99.90;;;;;;10464249;28;20555;-80
2022/10/06 14:07:46;;;;;;;4.83;4.27;;;18.80;99.90;;;;;;10465181;28;20270;-79
2022/10/06 14:12:49;;;;;;;3.73;3.43;;;18.60;99.90;;;;;;10446363;28;20214;-81
2022/10/06 14:17:57;;;;;;;5.20;4.13;;;18.40;99.90;;;;;;10452546;28;20208;-80
2022/10/06 14:22:59;;;;;;;3.90;3.70;;;18.30;99.90;;;;;;10482150;28;20197;-80
2022/10/06 14:28:03;;;;;;;3.50;3.20;;;18.10;99.90;;;;;;10429675;28;20213;-79
2022/10/06 14:33:05;;;;;;;6.73;4.60;;;18.00;99.90;;;;;;10455412;28;20194;-79
2022/10/06 14:38:07;;;;;;;4.53;4.20;;;18.00;99.90;;;;;;10405857;28;20218;-80
2022/10/06 14:43:11;;;;;;;9.70;4.10;;;17.90;99.90;;;;;;10443934;28;20243;-80
2022/10/06 14:48:15;;;;;;;4.63;4.00;;;18.00;99.90;;;;;;10459309;28;20712;-79
2022/10/06 14:53:19;;;;;;;6.90;4.90;;;18.00;99.90;;;;;;10442012;28;20193;-80
2022/10/06 14:58:23;;;;;;;4.23;3.87;;;18.00;99.90;;;;;;10425236;28;20221;-79
2022/10/06 15:03:26;;;;;;;4.67;4.23;;;18.10;99.90;;;;;;10442143;28;20205;-80
2022/10/06 15:08:29;;;;;;;4.33;3.10;;;18.10;99.90;;;;;;10459984;28;20308;-79
2022/10/06 15:13:34;;;;;;;5.00;4.50;;;18.10;99.90;;;;;;10460115;28;20194;-79
2022/10/06 15:18:36;;;;;;;4.17;3.77;;;18.00;99.90;;;;;;10443603;28;20212;-80
2022/10/06 15:23:39;;;;;;;4.60;3.67;;;18.00;99.90;;;;;;10460675;28;20190;-79
2022/10/06 15:29:00;;;;;;;5.60;4.80;;;18.00;99.90;;;;;;10442702;28;20248;-79
2022/10/06 15:34:04;;;;;;;5.70;4.80;;;18.00;99.90;;;;;;10443074;28;20221;-79
2022/10/06 15:39:09;;;;;;;5.43;4.93;;;18.00;99.90;;;;;;10441818;28;20740;-79
2022/10/06 15:44:14;;;;;;;6.07;4.57;;;18.00;99.90;;;;;;10437162;28;20193;-79
2022/10/06 15:49:18;;;;;;;6.60;3.93;;;17.90;99.90;;;;;;10465852;28;20280;-79
2022/10/06 15:54:23;;;;;;;4.27;3.97;;;17.90;99.90;;;;;;10485923;28;20269;-79
2022/10/06 15:59:31;;;;;;;3.27;2.70;;;17.80;99.90;;;;;;10457435;28;20223;-82
2022/10/06 16:04:47;;;;;;;5.50;3.63;;;17.70;99.90;;;;;;10470385;28;20626;-79
2022/10/06 16:09:50;;;;;;;5.23;4.30;;;17.60;99.90;;;;;;10477971;28;20247;-82
2022/10/06 16:14:54;;;;;;;4.57;4.17;;;17.60;99.90;;;;;;10461206;28;20292;-81
2022/10/06 16:19:56;;;;;;;3.90;3.60;;;17.50;99.90;;;;;;10497075;28;20277;-77
2022/10/06 16:24:58;;;;;;;4.33;4.00;;;17.40;99.90;;;;;;10463275;28;20196;-79
2022/10/06 16:30:01;;;;;;;3.90;3.60;;;17.30;99.90;;;;;;10474991;28;21048;-78
2022/10/06 16:35:03;;;;;;;5.50;4.67;;;17.30;99.90;;;;;;10486912;28;20205;-80
2022/10/06 16:40:06;;;;;;;4.50;4.13;;;17.20;99.90;;;;;;10473118;28;20197;-80
2022/10/06 16:45:13;;;;;;;5.00;4.60;;;17.10;99.90;;;;;;10460521;28;20330;-81
2022/10/06 16:50:15;;;;;;;4.07;3.77;;;17.00;99.90;;;;;;10471693;28;20232;-79
2022/10/06 16:55:17;;;;;;;5.57;4.63;;;16.90;99.90;;;;;;10487994;28;20560;-82
2022/10/06 17:00:21;;;;;;;7.70;4.83;;;16.80;99.90;;;;;;10514615;28;20213;-80
2022/10/06 17:05:23;;;;;;;6.10;5.47;;;16.80;99.90;;;;;;10445959;28;20197;-80
2022/10/06 17:10:25;;;;;;;4.53;4.23;;;16.70;99.90;;;;;;10463251;28;20274;-80
2022/10/06 17:15:28;;;;;;;10.30;8.40;;;16.70;99.90;;;;;;10449045;28;20238;-78
2022/10/06 17:20:30;;;;;;;9.03;6.80;;;16.70;99.90;;;;;;10449830;28;20267;-81
2022/10/06 17:25:33;;;;;;;11.30;9.33;;;16.70;99.90;;;;;;10431859;28;20267;-82
2022/10/06 17:30:36;;;;;;;16.60;13.40;;;16.60;99.90;;;;;;10457751;28;20298;-83
2022/10/06 17:35:38;;;;;;;6.33;5.73;;;16.60;99.90;;;;;;10451955;28;20569;-82
2022/10/06 17:40:43;;;;;;;8.03;5.50;;;16.60;99.90;;;;;;10468003;28;20256;-81
2022/10/06 17:45:48;;;;;;;27.40;19.07;;;16.60;99.90;;;;;;10465098;28;20200;-81
2022/10/06 17:50:58;;;;;;;8.00;6.50;;;16.60;99.90;;;;;;10465739;28;20517;-82
2022/10/06 17:56:06;;;;;;;7.13;6.43;;;16.60;99.90;;;;;;10445336;28;20205;-82
2022/10/06 18:01:12;;;;;;;12.30;10.50;;;16.60;99.90;;;;;;10457855;22;20228;-79
2022/10/06 18:06:16;;;;;;;10.33;9.33;;;16.70;99.90;;;;;;10439061;28;20251;-77
2022/10/06 18:11:34;;;;;;;9.43;6.40;;;16.70;99.90;;;;;;10455014;28;20569;-77
2022/10/06 18:16:40;;;;;;;11.07;5.50;;;16.60;99.90;;;;;;10454618;28;20203;-78
2022/10/06 18:21:43;;;;;;;39.57;21.20;;;16.60;99.90;;;;;;10451082;28;20593;-77
2022/10/06 18:26:47;;;;;;;8.30;7.13;;;16.60;99.90;;;;;;10456760;28;20266;-78
2022/10/06 18:31:52;;;;;;;6.03;5.53;;;16.50;99.90;;;;;;10457539;28;20239;-78
2022/10/06 18:36:54;;;;;;;32.03;13.17;;;16.50;99.90;;;;;;10457658;28;20194;-78
2022/10/06 18:41:57;;;;;;;11.23;6.90;;;16.50;99.90;;;;;;10458797;28;20218;-78
2022/10/06 18:52:21;;;;;;;25.03;14.50;;;16.40;99.90;;;;;;10453023;28;20212;-78
2022/10/06 18:57:24;;;;;;;14.93;9.40;;;16.30;99.90;;;;;;10454448;28;20201;-78
2022/10/06 19:02:28;;;;;;;7.70;6.57;;;16.20;99.90;;;;;;10454145;28;20221;-77
2022/10/06 19:07:30;;;;;;;7.63;6.50;;;16.20;99.90;;;;;;10454864;28;20308;-77
2022/10/06 19:12:32;;;;;;;7.37;6.63;;;16.10;99.90;;;;;;10453063;28;20708;-78
2022/10/06 19:17:39;;;;;;;12.23;11.17;;;16.00;99.90;;;;;;10454345;28;20289;-78
2022/10/06 19:22:42;;;;;;;13.60;7.03;;;16.00;99.90;;;;;;10453462;28;20597;-78
2022/10/06 19:27:44;;;;;;;8.73;6.20;;;15.90;99.90;;;;;;10455541;28;20580;-78
2022/10/06 19:32:48;;;;;;;7.90;7.10;;;15.90;99.90;;;;;;10457243;28;20232;-77
2022/10/06 19:37:51;;;;;;;8.27;7.27;;;15.90;99.90;;;;;;10455166;28;20303;-78
2022/10/06 19:42:53;;;;;;;6.83;5.17;;;15.90;99.90;;;;;;10455614;28;20228;-80
2022/10/06 19:47:56;;;;;;;7.73;5.97;;;15.90;99.90;;;;;;10440382;28;20308;-79
2022/10/06 19:52:59;;;;;;;6.67;5.97;;;15.90;99.90;;;;;;10458168;28;20209;-77
2022/10/06 19:58:01;;;;;;;6.83;6.17;;;15.80;99.90;;;;;;10458847;28;20229;-79
2022/10/06 20:03:07;;;;;;;9.10;5.70;;;15.80;99.90;;;;;;10440407;28;20661;-79
2022/10/06 20:08:09;;;;;;;8.27;7.47;;;15.70;99.90;;;;;;10439263;28;20224;-78
2022/10/06 20:13:11;;;;;;;15.17;10.50;;;15.70;99.90;;;;;;10453232;28;20205;-77
2022/10/06 20:18:15;;;;;;;24.30;15.40;;;15.70;99.90;;;;;;10448159;28;20258;-77
2022/10/06 20:23:17;;;;;;;42.03;27.40;;;15.60;99.90;;;;;;10450231;28;20212;-77
2022/10/06 20:28:19;;;;;;;28.43;17.57;;;15.60;99.90;;;;;;10440046;28;20212;-77
2022/10/06 20:33:23;;;;;;;19.27;15.43;;;15.50;99.90;;;;;;10449883;28;20233;-77
2022/10/06 20:40:37;;;;;;;10.70;9.30;;;15.50;99.90;;;;;;10449691;28;20697;-77
2022/10/06 20:43:47;;;;;;;10.37;8.43;;;15.50;99.90;;;;;;10437135;28;20193;-77
2022/10/06 20:48:51;;;;;;;13.63;10.57;;;15.50;99.90;;;;;;10458031;28;20229;-76
2022/10/06 20:53:53;;;;;;;9.93;8.90;;;15.50;99.90;;;;;;10458330;28;20192;-76
2022/10/06 20:58:56;;;;;;;8.83;5.87;;;15.50;99.90;;;;;;10465456;28;20221;-77
2022/10/06 21:04:00;;;;;;;7.00;6.40;;;15.50;99.90;;;;;;10435185;28;20197;-77
2022/10/06 21:09:02;;;;;;;6.50;5.60;;;15.50;99.90;;;;;;10457840;28;20213;-77
2022/10/06 21:14:09;;;;;;;8.90;7.23;;;15.60;99.90;;;;;;10440498;28;20277;-77
2022/10/06 21:19:14;;;;;;;8.47;6.50;;;15.60;99.90;;;;;;10437513;28;20272;-77
2022/10/06 21:24:16;;;;;;;6.93;6.43;;;15.60;99.90;;;;;;10440401;28;20601;-80
2022/10/06 21:29:19;;;;;;;10.27;7.10;;;15.60;99.90;;;;;;10438439;28;20913;-80
2022/10/06 21:34:22;;;;;;;11.17;10.30;;;15.60;99.90;;;;;;10444185;28;20678;-80
2022/10/06 21:39:24;;;;;;;10.03;7.13;;;15.60;99.90;;;;;;10444657;28;20229;-79
2022/10/06 21:44:26;;;;;;;8.73;7.60;;;15.50;99.90;;;;;;10442013;28;20321;-80
2022/10/06 21:49:30;;;;;;;7.07;6.37;;;15.50;99.90;;;;;;10432332;28;20242;-80
2022/10/06 21:54:32;;;;;;;8.70;7.47;;;15.50;99.90;;;;;;10460587;28;20224;-79
2022/10/06 21:59:34;;;;;;;7.13;6.37;;;15.50;99.90;;;;;;10461730;28;20244;-78
2022/10/06 22:04:37;;;;;;;8.70;6.60;;;15.50;99.90;;;;;;10462938;28;20219;-78
2022/10/06 22:09:39;;;;;;;39.57;16.90;;;15.40;99.90;;;;;;10463291;28;20221;-80
2022/10/06 22:14:44;;;;;;;7.20;5.67;;;15.40;99.90;;;;;;10464333;28;20235;-80
2022/10/06 22:19:48;;;;;;;6.30;5.80;;;15.30;99.90;;;;;;10463852;28;20213;-79
2022/10/06 22:24:50;;;;;;;6.33;5.83;;;15.30;99.90;;;;;;10462253;28;20736;-79
2022/10/06 22:29:52;;;;;;;5.83;5.33;;;15.20;99.90;;;;;;10462519;28;20224;-80
2022/10/06 22:34:56;;;;;;;7.37;6.37;;;15.20;99.90;;;;;;10446963;28;20193;-80
2022/10/06 22:39:58;;;;;;;7.73;6.30;;;15.20;99.90;;;;;;10464327;28;20235;-80
2022/10/06 22:45:00;;;;;;;6.80;6.30;;;15.10;99.90;;;;;;10474222;28;20193;-80
2022/10/06 22:50:04;;;;;;;6.90;6.07;;;15.10;99.90;;;;;;10463911;28;20223;-79
2022/10/06 22:55:07;;;;;;;5.17;4.77;;;15.00;99.90;;;;;;10466448;28;20197;-80
2022/10/06 23:00:10;;;;;;;6.23;5.60;;;15.00;99.90;;;;;;10457826;28;20239;-80
2022/10/06 23:05:14;;;;;;;10.60;7.03;;;15.00;99.90;;;;;;10459187;28;20232;-79
2022/10/06 23:10:17;;;;;;;7.90;5.30;;;15.00;99.90;;;;;;10459534;28;20217;-78
2022/10/06 23:15:20;;;;;;;8.17;5.37;;;15.00;99.90;;;;;;10458827;28;20239;-80
2022/10/06 23:20:23;;;;;;;6.40;5.20;;;15.10;99.90;;;;;;10460955;28;20239;-78
2022/10/06 23:25:26;;;;;;;10.73;7.67;;;15.10;99.90;;;;;;10460531;28;20249;-74
2022/10/06 23:30:28;;;;;;;6.40;5.03;;;15.10;99.90;;;;;;10460013;28;20221;-80
2022/10/06 23:35:31;;;;;;;7.80;5.70;;;15.00;99.90;;;;;;10460445;28;20193;-80
2022/10/06 23:40:33;;;;;;;6.50;6.00;;;15.10;99.90;;;;;;10460324;28;20213;-80
2022/10/06 23:45:35;;;;;;;6.03;5.43;;;15.10;99.90;;;;;;10470339;28;20269;-78
2022/10/06 23:50:38;;;;;;;6.60;6.10;;;15.10;99.90;;;;;;10459629;28;20228;-80
2022/10/06 23:55:41;;;;;;;8.67;6.00;;;15.20;99.90;;;;;;10459483;28;20284;-80
